createdAt,value
2019-05-09T00:01:23.781Z,98.50
2019-05-09T00:03:54.333Z,98.20
2019-05-09T00:06:23.916Z,98.00
2019-05-09T00:08:53.222Z,97.90
2019-05-09T00:11:24.439Z,97.90
2019-05-09T00:13:53.848Z,97.90
2019-05-09T00:16:23.489Z,97.70
2019-05-09T00:18:54.072Z,97.50
2019-05-09T00:21:25.378Z,97.50
2019-05-09T00:23:54.216Z,97.60
2019-05-09T00:26:23.634Z,97.60
2019-05-09T00:28:54.025Z,97.50
2019-05-09T00:31:30.538Z,97.70
2019-05-09T00:34:00.793Z,97.50
2019-05-09T00:36:29.500Z,97.60
2019-05-09T00:38:58.115Z,97.80
2019-05-09T00:41:26.747Z,98.00
2019-05-09T00:44:03.456Z,98.00
2019-05-09T00:46:34.107Z,98.20
2019-05-09T00:49:07.160Z,98.10
2019-05-09T00:51:35.834Z,98.30
2019-05-09T00:54:04.617Z,98.00
2019-05-09T00:56:33.301Z,98.00
2019-05-09T00:59:04.205Z,98.10
2019-05-09T01:01:34.197Z,98.20
2019-05-09T01:04:04.404Z,98.10
2019-05-09T01:06:33.987Z,98.00
2019-05-09T01:09:04.201Z,98.00
2019-05-09T01:11:33.437Z,97.90
2019-05-09T01:14:03.584Z,97.90
2019-05-09T01:16:33.700Z,97.70
2019-05-09T01:19:03.612Z,97.80
2019-05-09T01:21:33.323Z,97.80
2019-05-09T01:24:14.758Z,97.80
2019-05-09T01:26:43.663Z,97.80
2019-05-09T01:29:13.712Z,97.90
2019-05-09T01:31:43.610Z,97.90
2019-05-09T01:34:17.663Z,97.80
2019-05-09T01:37:06.581Z,97.60
2019-05-09T01:39:36.221Z,97.50
2019-05-09T01:42:05.987Z,97.40
2019-05-09T01:44:34.733Z,97.60
2019-05-09T01:47:04.003Z,97.80
2019-05-09T01:49:34.131Z,97.90
2019-05-09T01:52:03.579Z,97.80
2019-05-09T01:54:34.485Z,97.70
2019-05-09T01:57:03.596Z,97.80
2019-05-09T01:59:33.925Z,97.80
2019-05-09T02:02:24.067Z,97.70
2019-05-09T02:04:53.364Z,97.80
2019-05-09T02:07:23.765Z,97.90
2019-05-09T02:09:53.968Z,97.90
2019-05-09T02:12:24.596Z,97.90
2019-05-09T02:14:57.459Z,97.90
2019-05-09T02:17:27.890Z,98.00
2019-05-09T02:19:56.497Z,98.00
2019-05-09T02:22:34.894Z,97.90
2019-05-09T02:25:09.044Z,97.90
2019-05-09T02:27:37.826Z,97.90
2019-05-09T02:30:08.045Z,97.90
2019-05-09T02:32:36.945Z,97.80
2019-05-09T02:35:07.560Z,97.80
2019-05-09T02:37:38.854Z,97.90
2019-05-09T02:40:09.685Z,97.90
2019-05-09T02:42:39.624Z,97.90
2019-05-09T02:45:08.958Z,97.90
2019-05-09T02:47:38.715Z,98.00
2019-05-09T02:50:09.630Z,98.00
2019-05-09T02:52:39.589Z,98.20
2019-05-09T02:55:10.623Z,98.00
2019-05-09T02:57:39.633Z,98.20
2019-05-09T03:00:13.263Z,98.10
2019-05-09T03:02:43.723Z,98.20
2019-05-09T03:05:12.473Z,98.10
2019-05-09T03:07:50.061Z,98.20
2019-05-09T03:10:19.993Z,98.10
2019-05-09T03:12:50.272Z,98.10
2019-05-09T03:15:20.408Z,98.10
2019-05-09T03:17:49.878Z,98.10
2019-05-09T03:20:23.411Z,98.20
2019-05-09T03:22:52.027Z,98.20
2019-05-09T03:25:20.722Z,98.20
2019-05-09T03:27:53.703Z,98.40
2019-05-09T03:30:39.402Z,98.40
2019-05-09T03:33:09.930Z,98.40
2019-05-09T03:35:37.887Z,98.50
2019-05-09T03:38:08.200Z,98.40
2019-05-09T03:40:37.852Z,98.50
2019-05-09T03:43:08.003Z,98.50
2019-05-09T03:45:38.610Z,98.70
2019-05-09T03:48:08.950Z,98.90
2019-05-09T03:50:38.315Z,98.70
2019-05-09T03:53:08.403Z,98.80
2019-05-09T03:55:38.352Z,98.90
2019-05-09T03:58:11.921Z,98.90
2019-05-09T04:00:40.635Z,98.80
2019-05-09T04:03:09.331Z,98.90
2019-05-09T04:05:38.026Z,98.90
2019-05-09T04:08:21.546Z,98.90
2019-05-09T04:10:54.032Z,99.00
2019-05-09T04:13:29.426Z,98.90
2019-05-09T04:15:58.304Z,98.80
2019-05-09T04:18:27.693Z,98.70
2019-05-09T04:20:57.328Z,98.90
2019-05-09T04:23:27.555Z,98.80
2019-05-09T04:25:58.383Z,98.80
2019-05-09T04:28:27.766Z,98.80
2019-05-09T04:30:58.151Z,98.80
2019-05-09T04:33:27.987Z,98.70
2019-05-09T04:35:57.882Z,98.70
2019-05-09T04:38:27.925Z,98.60
2019-05-09T04:40:58.420Z,98.50
2019-05-09T04:43:35.520Z,98.60
2019-05-09T04:46:02.261Z,98.40
2019-05-09T04:48:32.498Z,98.10
2019-05-09T04:51:03.319Z,98.40
2019-05-09T04:53:32.262Z,98.20
2019-05-09T04:56:02.706Z,98.10
2019-05-09T04:58:31.318Z,98.00
2019-05-09T05:01:19.774Z,97.80
2019-05-09T05:03:49.337Z,97.60
2019-05-09T05:06:20.641Z,97.20
2019-05-09T05:08:48.302Z,96.80
2019-05-09T05:11:17.827Z,96.60
2019-05-09T05:13:48.159Z,96.50
2019-05-09T05:16:18.480Z,96.10
2019-05-09T05:18:47.856Z,96.20
2019-05-09T05:21:20.032Z,95.40
2019-05-09T05:23:48.438Z,94.90
2019-05-09T05:26:18.377Z,94.20
2019-05-09T05:28:47.525Z,94.10
2019-05-09T05:31:18.062Z,94.20
2019-05-09T05:33:53.038Z,94.00
2019-05-09T05:36:20.546Z,94.10
2019-05-09T05:38:49.155Z,93.80
2019-05-09T05:41:18.389Z,94.30
2019-05-09T05:43:47.920Z,94.80
2019-05-09T05:46:25.466Z,95.20
2019-05-09T05:48:57.618Z,94.90
2019-05-09T05:51:27.716Z,94.90
2019-05-09T05:53:57.399Z,95.20
2019-05-09T05:56:28.052Z,95.10
2019-05-09T05:58:58.083Z,94.80
2019-05-09T06:01:27.919Z,95.30
2019-05-09T06:03:58.627Z,95.10
2019-05-09T06:06:27.974Z,94.70
2019-05-09T06:08:57.896Z,95.00
2019-05-09T06:11:28.069Z,94.80
2019-05-09T06:14:05.091Z,94.80
2019-05-09T06:16:28.113Z,94.40
2019-05-09T06:18:58.678Z,93.90
2019-05-09T06:21:28.312Z,92.50
2019-05-09T06:23:58.411Z,92.70
2019-05-09T06:26:29.142Z,93.30
2019-05-09T06:28:58.219Z,93.40
2019-05-09T06:31:28.482Z,93.50
2019-05-09T06:33:57.932Z,93.40
2019-05-09T06:36:28.333Z,93.00
2019-05-09T06:38:58.839Z,93.10
2019-05-09T06:41:28.517Z,92.60
2019-05-09T06:44:13.141Z,92.70
2019-05-09T06:46:40.329Z,93.30
2019-05-09T06:49:26.809Z,92.90
2019-05-09T06:51:41.010Z,92.70
2019-05-09T06:54:09.619Z,92.90
2019-05-09T06:56:38.322Z,92.60
2019-05-09T06:59:07.610Z,92.40
2019-05-09T07:01:48.161Z,92.40
2019-05-09T07:04:27.763Z,92.00
2019-05-09T07:07:01.041Z,90.80
2019-05-09T07:09:31.294Z,85.30
2019-05-09T07:12:00.461Z,80.30
2019-05-09T07:14:33.287Z,78.40
2019-05-09T07:17:01.108Z,77.90
2019-05-09T07:19:29.735Z,79.30
2019-05-09T07:22:03.007Z,79.30
2019-05-09T07:24:33.351Z,81.40
2019-05-09T07:27:01.957Z,83.50
2019-05-09T07:29:32.236Z,81.40
2019-05-09T07:32:02.499Z,83.60
2019-05-09T07:34:32.790Z,81.00
2019-05-09T07:37:01.582Z,81.40
2019-05-09T07:39:30.268Z,77.70
2019-05-09T07:41:58.897Z,77.90
2019-05-09T07:44:33.180Z,79.50
2019-05-09T07:46:59.520Z,75.50
2019-05-09T07:49:28.788Z,73.00
2019-05-09T07:51:59.026Z,70.90
2019-05-09T07:54:29.207Z,72.20
2019-05-09T07:56:58.306Z,72.90
2019-05-09T07:59:27.533Z,75.00
2019-05-09T08:01:58.186Z,72.20
2019-05-09T08:04:28.558Z,72.60
2019-05-09T08:06:57.857Z,68.00
2019-05-09T08:09:28.079Z,69.90
2019-05-09T08:11:58.826Z,71.20
2019-05-09T08:14:28.080Z,70.00
2019-05-09T08:16:58.068Z,69.30
2019-05-09T08:19:27.484Z,71.00
2019-05-09T08:21:57.488Z,71.30
2019-05-09T08:24:27.769Z,72.20
2019-05-09T08:26:58.046Z,72.40
2019-05-09T08:29:28.178Z,71.00
2019-05-09T08:31:58.307Z,68.60
2019-05-09T08:34:28.429Z,72.60
2019-05-09T08:36:58.162Z,68.90
2019-05-09T08:39:27.690Z,70.80
2019-05-09T08:41:59.222Z,71.00
2019-05-09T08:44:30.420Z,69.80
2019-05-09T08:46:57.644Z,71.40
2019-05-09T08:49:28.668Z,70.80
2019-05-09T08:52:10.213Z,70.50
2019-05-09T08:54:49.099Z,70.70
2019-05-09T08:57:18.367Z,71.30
2019-05-09T08:59:50.324Z,69.80
2019-05-09T09:02:22.040Z,68.60
2019-05-09T09:04:48.915Z,67.50
2019-05-09T09:07:18.978Z,69.10
2019-05-09T09:09:48.373Z,68.80
2019-05-09T09:12:27.078Z,70.20
2019-05-09T09:14:47.899Z,69.50
2019-05-09T09:17:18.758Z,67.20
2019-05-09T09:19:47.865Z,67.50
2019-05-09T09:22:18.021Z,65.50
2019-05-09T09:24:48.183Z,63.30
2019-05-09T09:27:18.177Z,61.90
2019-05-09T09:29:48.058Z,63.70
2019-05-09T09:32:18.964Z,63.70
2019-05-09T09:34:48.521Z,64.60
2019-05-09T09:37:18.541Z,61.20
2019-05-09T09:39:50.617Z,59.70
2019-05-09T09:42:20.204Z,57.70
2019-05-09T09:44:49.082Z,57.90
2019-05-09T09:47:22.380Z,60.10
2019-05-09T09:49:49.085Z,59.50
2019-05-09T09:52:18.746Z,60.10
2019-05-09T09:54:48.211Z,60.20
2019-05-09T09:57:19.008Z,59.00
2019-05-09T09:59:49.605Z,58.60
2019-05-09T10:02:19.994Z,59.10
2019-05-09T10:04:48.635Z,58.60
2019-05-09T10:07:18.964Z,57.30
2019-05-09T10:09:47.971Z,58.20
2019-05-09T10:12:18.175Z,56.20
2019-05-09T10:14:51.410Z,55.70
2019-05-09T10:17:44.086Z,56.40
2019-05-09T10:20:23.642Z,57.30
2019-05-09T10:22:59.658Z,57.40
2019-05-09T10:25:22.672Z,56.90
2019-05-09T10:27:51.372Z,55.20
2019-05-09T10:30:23.076Z,59.50
2019-05-09T10:32:51.709Z,62.40
2019-05-09T10:35:23.717Z,61.80
2019-05-09T10:37:52.489Z,59.50
2019-05-09T10:40:22.932Z,54.00
2019-05-09T10:43:02.409Z,55.30
2019-05-09T10:45:40.738Z,52.50
2019-05-09T10:48:09.047Z,52.80
2019-05-09T10:50:44.735Z,53.20
2019-05-09T10:53:08.265Z,55.10
2019-05-09T10:55:38.525Z,55.60
2019-05-09T10:58:08.292Z,53.80
2019-05-09T11:00:39.196Z,53.30
2019-05-09T11:03:08.893Z,53.40
2019-05-09T11:05:37.690Z,54.00
2019-05-09T11:08:08.235Z,51.30
2019-05-09T11:10:39.428Z,52.30
2019-05-09T11:13:07.834Z,53.60
2019-05-09T11:15:37.503Z,55.80
2019-05-09T11:18:13.578Z,57.60
2019-05-09T11:20:42.209Z,58.00
2019-05-09T11:23:10.884Z,55.60
2019-05-09T11:25:40.623Z,57.00
2019-05-09T11:28:12.645Z,56.60
2019-05-09T11:30:39.589Z,55.70
2019-05-09T11:33:08.286Z,58.50
2019-05-09T11:35:37.951Z,57.30
2019-05-09T11:38:08.399Z,56.00
2019-05-09T11:40:37.821Z,57.10
2019-05-09T11:43:06.831Z,52.40
2019-05-09T11:45:35.497Z,53.00
2019-05-09T11:48:04.305Z,54.10
2019-05-09T11:50:32.915Z,51.60
2019-05-09T11:53:02.967Z,53.20
2019-05-09T11:55:36.057Z,55.50
2019-05-09T11:58:02.152Z,56.60
2019-05-09T12:00:30.882Z,56.70
2019-05-09T12:02:59.552Z,57.40
2019-05-09T12:05:28.879Z,56.50
2019-05-09T12:07:58.316Z,53.90
2019-05-09T12:10:28.615Z,50.90
2019-05-09T12:12:57.791Z,53.00
2019-05-09T12:15:29.045Z,52.60
2019-05-09T12:17:59.213Z,51.80
2019-05-09T12:20:27.854Z,55.20
2019-05-09T12:22:58.406Z,53.40
2019-05-09T12:25:28.293Z,50.70
2019-05-09T12:27:58.401Z,49.70
2019-05-09T12:30:28.428Z,48.70
2019-05-09T12:32:58.870Z,52.20
2019-05-09T12:35:28.008Z,53.00
2019-05-09T12:37:56.774Z,54.00
2019-05-09T12:40:25.915Z,54.60
2019-05-09T12:42:54.526Z,52.70
2019-05-09T12:45:23.280Z,53.10
2019-05-09T12:48:06.048Z,54.10
2019-05-09T12:50:22.306Z,53.60
2019-05-09T12:52:51.006Z,53.10
2019-05-09T12:55:19.688Z,52.80
2019-05-09T12:57:48.909Z,54.80
2019-05-09T13:00:18.762Z,55.30
2019-05-09T13:02:47.735Z,54.80
2019-05-09T13:05:18.109Z,51.70
2019-05-09T13:07:48.082Z,52.30
2019-05-09T13:10:19.438Z,53.00
2019-05-09T13:12:48.463Z,51.20
2019-05-09T13:15:20.871Z,51.90
2019-05-09T13:17:51.178Z,52.40
2019-05-09T13:20:19.925Z,53.60
2019-05-09T13:22:48.641Z,54.40
2019-05-09T13:25:18.830Z,53.50
2019-05-09T13:27:47.981Z,52.40
2019-05-09T13:30:19.134Z,48.70
2019-05-09T13:32:48.406Z,47.20
2019-05-09T13:35:19.794Z,47.80
2019-05-09T13:37:49.012Z,50.30
2019-05-09T13:40:19.037Z,51.60
2019-05-09T13:42:49.033Z,52.50
2019-05-09T13:45:18.733Z,53.70
2019-05-09T13:47:48.504Z,51.30
2019-05-09T13:50:19.254Z,53.70
2019-05-09T13:52:48.167Z,54.50
2019-05-09T13:55:17.950Z,54.20
2019-05-09T13:57:48.545Z,53.10
2019-05-09T14:00:18.789Z,51.70
2019-05-09T14:02:48.951Z,50.30
2019-05-09T14:05:19.028Z,50.50
2019-05-09T14:07:49.165Z,50.50
2019-05-09T14:10:18.605Z,48.50
2019-05-09T14:13:04.992Z,44.40
2019-05-09T14:15:18.473Z,43.60
2019-05-09T14:17:53.088Z,45.10
2019-05-09T14:20:19.258Z,47.00
2019-05-09T14:22:49.036Z,45.40
2019-05-09T14:25:19.546Z,44.20
2019-05-09T14:27:49.755Z,47.50
2019-05-09T14:30:19.760Z,49.30
2019-05-09T14:32:49.755Z,49.30
2019-05-09T14:35:18.853Z,49.20
2019-05-09T14:38:11.654Z,49.00
2019-05-09T14:40:40.326Z,46.90
2019-05-09T14:43:09.782Z,46.90
2019-05-09T14:45:38.611Z,42.70
2019-05-09T14:48:07.966Z,45.50
2019-05-09T14:50:38.198Z,47.00
2019-05-09T14:53:08.693Z,45.20
2019-05-09T14:55:39.176Z,44.60
2019-05-09T14:58:07.917Z,45.60
2019-05-09T15:00:38.686Z,47.30
2019-05-09T15:03:08.174Z,49.20
2019-05-09T15:05:37.845Z,49.90
2019-05-09T15:08:06.753Z,50.40
2019-05-09T15:10:35.500Z,51.40
2019-05-09T15:13:04.308Z,51.80
2019-05-09T15:15:33.130Z,51.60
2019-05-09T15:18:01.737Z,52.10
2019-05-09T15:20:30.619Z,52.50
2019-05-09T15:22:59.328Z,53.50
2019-05-09T15:25:28.244Z,53.40
2019-05-09T15:27:57.967Z,54.40
2019-05-09T15:30:28.690Z,54.40
2019-05-09T15:32:58.542Z,55.20
2019-05-09T15:35:28.103Z,55.70
2019-05-09T15:37:59.069Z,55.40
2019-05-09T15:40:28.186Z,55.30
2019-05-09T15:42:58.891Z,55.10
2019-05-09T15:45:28.996Z,55.20
2019-05-09T15:47:58.290Z,55.90
2019-05-09T15:50:27.840Z,56.00
2019-05-09T15:52:58.040Z,56.10
2019-05-09T15:55:28.292Z,55.40
2019-05-09T15:57:57.780Z,54.70
2019-05-09T16:00:28.383Z,54.10
2019-05-09T16:02:59.028Z,53.20
2019-05-09T16:05:27.472Z,52.90
2019-05-09T16:07:58.444Z,52.80
2019-05-09T16:10:28.334Z,51.20
2019-05-09T16:12:56.784Z,50.80
2019-05-09T16:15:28.244Z,52.20
2019-05-09T16:17:55.948Z,52.60
2019-05-09T16:20:36.859Z,52.30
2019-05-09T16:22:57.133Z,51.60
2019-05-09T16:25:25.266Z,49.50
2019-05-09T16:27:54.670Z,50.90
2019-05-09T16:30:23.507Z,49.90
2019-05-09T16:32:52.159Z,49.30
2019-05-09T16:35:20.840Z,49.90
2019-05-09T16:38:01.347Z,51.40
2019-05-09T16:40:19.906Z,53.80
2019-05-09T16:42:48.616Z,54.60
2019-05-09T16:45:18.184Z,54.70
2019-05-09T16:47:48.467Z,55.40
2019-05-09T16:50:18.138Z,56.10
2019-05-09T16:52:48.869Z,56.40
2019-05-09T16:55:21.490Z,56.20
2019-05-09T16:57:50.261Z,57.00
2019-05-09T17:00:43.673Z,59.50
2019-05-09T17:03:12.448Z,63.50
2019-05-09T17:05:42.160Z,63.80
2019-05-09T17:08:10.925Z,64.90
2019-05-09T17:10:40.679Z,66.00
2019-05-09T17:13:09.277Z,67.20
2019-05-09T17:15:38.911Z,67.50
2019-05-09T17:18:10.059Z,68.00
2019-05-09T17:20:55.256Z,68.50
2019-05-09T17:23:29.281Z,70.40
2019-05-09T17:25:57.867Z,72.10
2019-05-09T17:28:28.456Z,73.10
2019-05-09T17:30:58.034Z,74.40
2019-05-09T17:33:28.759Z,75.90
2019-05-09T17:35:57.892Z,75.50
2019-05-09T17:38:27.894Z,75.60
2019-05-09T17:40:57.659Z,75.00
2019-05-09T17:43:27.788Z,75.20
2019-05-09T17:45:58.380Z,75.00
2019-05-09T17:48:28.506Z,73.80
2019-05-09T17:50:58.058Z,74.30
2019-05-09T17:53:29.225Z,74.30
2019-05-09T17:55:58.669Z,75.50
2019-05-09T17:58:32.914Z,76.00
2019-05-09T18:00:58.045Z,76.70
2019-05-09T18:03:28.867Z,76.60
2019-05-09T18:05:57.769Z,76.60
2019-05-09T18:08:28.371Z,79.50
2019-05-09T18:10:58.403Z,80.00
2019-05-09T18:13:30.684Z,80.20
2019-05-09T18:15:57.673Z,83.10
2019-05-09T18:18:28.422Z,82.70
2019-05-09T18:20:58.011Z,84.60
2019-05-09T18:23:28.353Z,85.10
2019-05-09T18:25:58.508Z,86.90
2019-05-09T18:28:29.320Z,88.80
2019-05-09T18:30:58.478Z,86.30
2019-05-09T18:33:29.235Z,87.90
2019-05-09T18:35:57.953Z,89.70
2019-05-09T18:38:29.718Z,89.80
2019-05-09T18:40:58.586Z,90.70
2019-05-09T18:43:27.603Z,90.20
2019-05-09T18:45:57.809Z,90.40
2019-05-09T18:48:27.861Z,90.00
2019-05-09T18:50:56.929Z,90.70
2019-05-09T18:53:25.729Z,90.40
2019-05-09T18:55:54.420Z,91.40
2019-05-09T18:58:23.981Z,91.40
2019-05-09T19:00:52.727Z,93.20
2019-05-09T19:03:21.356Z,92.80
2019-05-09T19:05:50.209Z,92.90
2019-05-09T19:08:18.902Z,92.70
2019-05-09T19:10:51.802Z,93.50
2019-05-09T19:13:17.967Z,92.30
2019-05-09T19:15:48.292Z,92.20
2019-05-09T19:18:18.557Z,92.20
2019-05-09T19:20:54.427Z,91.80
2019-05-09T19:23:23.136Z,93.70
2019-05-09T19:25:51.910Z,93.50
2019-05-09T19:28:23.860Z,93.40
2019-05-09T19:30:50.875Z,93.80
2019-05-09T19:33:19.509Z,93.60
2019-05-09T19:35:48.216Z,93.20
2019-05-09T19:38:16.863Z,93.60
2019-05-09T19:40:45.622Z,93.70
2019-05-09T19:43:14.234Z,93.60
2019-05-09T19:45:43.052Z,93.60
2019-05-09T19:48:11.760Z,93.20
2019-05-09T19:50:40.440Z,92.80
2019-05-09T19:53:10.188Z,92.60
2019-05-09T19:55:42.380Z,92.60
2019-05-09T19:58:11.024Z,92.40
2019-05-09T20:00:39.701Z,91.80
2019-05-09T20:03:08.406Z,92.30
2019-05-09T20:05:37.024Z,92.70
2019-05-09T20:08:05.737Z,92.40
2019-05-09T20:10:52.408Z,92.60
2019-05-09T20:13:22.736Z,93.00
2019-05-09T20:15:51.370Z,93.50
2019-05-09T20:18:20.165Z,93.30
2019-05-09T20:20:49.010Z,93.20
2019-05-09T20:23:17.801Z,93.50
2019-05-09T20:25:46.412Z,93.60
2019-05-09T20:28:15.282Z,93.70
2019-05-09T20:30:43.966Z,93.50
2019-05-09T20:33:13.897Z,93.20
2019-05-09T20:35:42.566Z,93.10
2019-05-09T20:38:11.422Z,93.30
2019-05-09T20:40:40.365Z,93.70
2019-05-09T20:43:09.141Z,93.70
2019-05-09T20:45:38.024Z,93.60
2019-05-09T20:48:07.064Z,93.80
2019-05-09T20:50:36.030Z,93.60
2019-05-09T20:53:09.697Z,93.30
2019-05-09T20:55:35.666Z,92.20
2019-05-09T20:58:04.672Z,92.90
2019-05-09T21:00:33.682Z,93.00
2019-05-09T21:03:02.472Z,92.90
2019-05-09T21:05:31.380Z,93.00
2019-05-09T21:08:00.177Z,93.20
2019-05-09T21:10:29.004Z,92.90
2019-05-09T21:12:58.049Z,93.00
2019-05-09T21:15:26.858Z,93.00
2019-05-09T21:17:55.709Z,93.10
2019-05-09T21:20:24.635Z,92.50
2019-05-09T21:22:53.475Z,92.80
2019-05-09T21:25:22.412Z,92.80
2019-05-09T21:27:51.381Z,92.70
2019-05-09T21:30:32.112Z,93.40
2019-05-09T21:33:06.580Z,94.00
2019-05-09T21:35:35.315Z,94.10
2019-05-09T21:38:03.987Z,94.30
2019-05-09T21:40:32.740Z,93.80
2019-05-09T21:43:01.548Z,94.20
2019-05-09T21:45:30.236Z,94.50
2019-05-09T21:47:58.911Z,94.90
2019-05-09T21:50:27.689Z,94.60
2019-05-09T21:52:56.369Z,94.70
2019-05-09T21:55:25.088Z,94.70
2019-05-09T21:57:53.797Z,94.80
2019-05-09T22:00:30.132Z,94.50
2019-05-09T22:02:58.844Z,94.60
2019-05-09T22:05:27.619Z,94.60
2019-05-09T22:07:56.293Z,94.70
2019-05-09T22:10:25.047Z,94.90
2019-05-09T22:12:53.741Z,95.00
2019-05-09T22:15:22.516Z,95.10
2019-05-09T22:17:51.225Z,95.60
2019-05-09T22:20:20.677Z,95.30
2019-05-09T22:22:49.285Z,95.30
2019-05-09T22:25:18.378Z,95.20
2019-05-09T22:27:47.164Z,95.70
2019-05-09T22:30:16.453Z,96.10
2019-05-09T22:32:45.203Z,95.80
2019-05-09T22:35:14.249Z,95.40
2019-05-09T22:37:42.986Z,95.50
2019-05-09T22:40:13.367Z,95.40
2019-05-09T22:42:42.049Z,95.20
2019-05-09T22:45:11.616Z,94.90
2019-05-09T22:47:40.248Z,95.20
2019-05-09T22:50:09.132Z,95.10
2019-05-09T22:52:37.955Z,95.00
2019-05-09T22:55:07.825Z,95.10
2019-05-09T22:57:36.583Z,95.10
2019-05-09T23:00:07.527Z,95.10
2019-05-09T23:02:36.205Z,95.20
2019-05-09T23:05:05.358Z,95.20
2019-05-09T23:07:34.114Z,95.40
2019-05-09T23:10:02.871Z,95.40
2019-05-09T23:12:31.586Z,95.40
2019-05-09T23:15:00.276Z,95.00
2019-05-09T23:17:28.915Z,95.10
2019-05-09T23:19:57.622Z,94.60
2019-05-09T23:22:28.031Z,94.60
2019-05-09T23:24:56.717Z,94.30
2019-05-09T23:27:26.532Z,94.30
2019-05-09T23:29:55.289Z,94.70
2019-05-09T23:32:37.972Z,94.40
2019-05-09T23:35:06.788Z,94.30
2019-05-09T23:37:54.861Z,94.30
2019-05-09T23:40:23.538Z,94.10
2019-05-09T23:42:52.160Z,93.60
2019-05-09T23:45:20.805Z,93.60
2019-05-09T23:47:49.416Z,93.50
2019-05-09T23:50:18.202Z,93.60
2019-05-09T23:52:46.833Z,93.60
2019-05-09T23:55:33.925Z,93.60
2019-05-09T23:58:20.798Z,93.50
